sensor_id;sensor_type;location;lat;lon;timestamp;temperature;humidity
5461;DHT22;2753;49.196;8.286;2023-11-18T00:00:44;7.20;99.90
5461;DHT22;2753;49.196;8.286;2023-11-18T00:03:09;7.20;99.90
5461;DHT22;2753;49.196;8.286;2023-11-18T00:05:35;7.20;99.90
5461;DHT22;2753;49.196;8.286;2023-11-18T00:08:01;7.20;99.90
5461;DHT22;2753;49.196;8.286;2023-11-18T00:10:27;7.10;99.90
5461;DHT22;2753;49.196;8.286;2023-11-18T00:12:54;7.10;99.90
5461;DHT22;2753;49.196;8.286;2023-11-18T00:15:20;7.10;99.90
5461;DHT22;2753;49.196;8.286;2023-11-18T00:17:46;7.10;99.90
5461;DHT22;2753;49.196;8.286;2023-11-18T00:20:12;7.10;99.90
5461;DHT22;2753;49.196;8.286;2023-11-18T00:22:39;7.10;99.90
5461;DHT22;2753;49.196;8.286;2023-11-18T00:25:08;7.10;99.90
5461;DHT22;2753;49.196;8.286;2023-11-18T00:27:34;7.10;99.90
5461;DHT22;2753;49.196;8.286;2023-11-18T00:30:04;7.10;99.90
5461;DHT22;2753;49.196;8.286;2023-11-18T00:32:39;7.10;99.90
5461;DHT22;2753;49.196;8.286;2023-11-18T00:35:05;7.10;99.90
5461;DHT22;2753;49.196;8.286;2023-11-18T00:37:31;7.10;99.90
5461;DHT22;2753;49.196;8.286;2023-11-18T00:39:57;7.10;99.90
5461;DHT22;2753;49.196;8.286;2023-11-18T00:42:23;7.10;99.90
5461;DHT22;2753;49.196;8.286;2023-11-18T00:44:48;7.10;99.90
5461;DHT22;2753;49.196;8.286;2023-11-18T00:47:14;7.10;99.90
5461;DHT22;2753;49.196;8.286;2023-11-18T00:49:40;7.20;99.90
5461;DHT22;2753;49.196;8.286;2023-11-18T00:52:06;7.10;99.90
5461;DHT22;2753;49.196;8.286;2023-11-18T00:54:31;7.10;99.90
5461;DHT22;2753;49.196;8.286;2023-11-18T00:56:57;7.10;99.90
5461;DHT22;2753;49.196;8.286;2023-11-18T00:59:23;7.10;99.90
5461;DHT22;2753;49.196;8.286;2023-11-18T01:01:48;7.10;99.90
5461;DHT22;2753;49.196;8.286;2023-11-18T01:04:14;7.10;99.90
5461;DHT22;2753;49.196;8.286;2023-11-18T01:06:42;7.10;99.90
5461;DHT22;2753;49.196;8.286;2023-11-18T01:09:08;7.10;99.90
5461;DHT22;2753;49.196;8.286;2023-11-18T01:11:35;7.20;99.90
5461;DHT22;2753;49.196;8.286;2023-11-18T01:14:01;7.20;99.90
5461;DHT22;2753;49.196;8.286;2023-11-18T01:16:27;7.20;99.90
5461;DHT22;2753;49.196;8.286;2023-11-18T01:18:54;7.20;99.90
5461;DHT22;2753;49.196;8.286;2023-11-18T01:21:21;7.20;99.90
5461;DHT22;2753;49.196;8.286;2023-11-18T01:23:50;7.20;99.90
5461;DHT22;2753;49.196;8.286;2023-11-18T01:26:16;7.20;99.90
5461;DHT22;2753;49.196;8.286;2023-11-18T01:28:45;7.20;99.90
5461;DHT22;2753;49.196;8.286;2023-11-18T01:31:12;7.10;99.90
5461;DHT22;2753;49.196;8.286;2023-11-18T01:33:39;7.10;99.90
5461;DHT22;2753;49.196;8.286;2023-11-18T01:36:07;7.10;99.90
5461;DHT22;2753;49.196;8.286;2023-11-18T01:38:38;7.00;99.90
5461;DHT22;2753;49.196;8.286;2023-11-18T01:41:05;7.00;99.90
5461;DHT22;2753;49.196;8.286;2023-11-18T01:43:32;7.00;99.90
5461;DHT22;2753;49.196;8.286;2023-11-18T01:46:07;7.10;99.90
5461;DHT22;2753;49.196;8.286;2023-11-18T01:48:37;7.10;99.90
5461;DHT22;2753;49.196;8.286;2023-11-18T01:51:05;7.00;99.90
5461;DHT22;2753;49.196;8.286;2023-11-18T01:53:34;6.90;99.90
5461;DHT22;2753;49.196;8.286;2023-11-18T01:56:02;6.90;99.90
5461;DHT22;2753;49.196;8.286;2023-11-18T01:58:31;6.90;99.90
5461;DHT22;2753;49.196;8.286;2023-11-18T02:00:57;6.90;99.90
5461;DHT22;2753;49.196;8.286;2023-11-18T02:03:23;6.90;99.90
5461;DHT22;2753;49.196;8.286;2023-11-18T02:05:49;6.90;99.90
5461;DHT22;2753;49.196;8.286;2023-11-18T02:08:15;6.90;99.90
5461;DHT22;2753;49.196;8.286;2023-11-18T02:10:49;6.90;99.90
5461;DHT22;2753;49.196;8.286;2023-11-18T02:13:23;6.90;99.90
5461;DHT22;2753;49.196;8.286;2023-11-18T02:15:53;6.90;99.90
5461;DHT22;2753;49.196;8.286;2023-11-18T02:18:28;6.90;99.90
5461;DHT22;2753;49.196;8.286;2023-11-18T02:20:58;6.90;99.90
5461;DHT22;2753;49.196;8.286;2023-11-18T02:23:25;6.90;99.90
5461;DHT22;2753;49.196;8.286;2023-11-18T02:25:54;6.90;99.90
5461;DHT22;2753;49.196;8.286;2023-11-18T02:28:21;6.90;99.90
5461;DHT22;2753;49.196;8.286;2023-11-18T02:30:47;6.80;99.90
5461;DHT22;2753;49.196;8.286;2023-11-18T02:35:54;6.80;99.90
5461;DHT22;2753;49.196;8.286;2023-11-18T02:38:28;6.80;99.90
5461;DHT22;2753;49.196;8.286;2023-11-18T02:40:58;6.70;99.90
5461;DHT22;2753;49.196;8.286;2023-11-18T02:43:26;6.70;99.90
5461;DHT22;2753;49.196;8.286;2023-11-18T02:45:58;6.70;99.90
5461;DHT22;2753;49.196;8.286;2023-11-18T02:48:26;6.60;99.90
5461;DHT22;2753;49.196;8.286;2023-11-18T02:50:53;6.60;99.90
5461;DHT22;2753;49.196;8.286;2023-11-18T02:53:19;6.60;99.90
5461;DHT22;2753;49.196;8.286;2023-11-18T02:55:45;6.60;99.90
5461;DHT22;2753;49.196;8.286;2023-11-18T02:58:11;6.50;99.90
5461;DHT22;2753;49.196;8.286;2023-11-18T03:00:37;6.50;99.90
5461;DHT22;2753;49.196;8.286;2023-11-18T03:03:04;6.50;99.90
5461;DHT22;2753;49.196;8.286;2023-11-18T03:05:30;6.50;99.90
5461;DHT22;2753;49.196;8.286;2023-11-18T03:07:56;6.50;99.90
5461;DHT22;2753;49.196;8.286;2023-11-18T03:10:23;6.50;99.90
5461;DHT22;2753;49.196;8.286;2023-11-18T03:12:51;6.50;99.90
5461;DHT22;2753;49.196;8.286;2023-11-18T03:15:18;6.50;99.90
5461;DHT22;2753;49.196;8.286;2023-11-18T03:17:48;6.50;99.90
5461;DHT22;2753;49.196;8.286;2023-11-18T03:20:14;6.50;99.90
5461;DHT22;2753;49.196;8.286;2023-11-18T03:22:45;6.50;99.90
5461;DHT22;2753;49.196;8.286;2023-11-18T03:25:15;6.50;99.90
5461;DHT22;2753;49.196;8.286;2023-11-18T03:27:41;6.40;99.90
5461;DHT22;2753;49.196;8.286;2023-11-18T03:30:07;6.40;99.90
5461;DHT22;2753;49.196;8.286;2023-11-18T03:32:36;6.40;99.90
5461;DHT22;2753;49.196;8.286;2023-11-18T03:35:11;6.40;99.90
5461;DHT22;2753;49.196;8.286;2023-11-18T03:37:41;6.40;99.90
5461;DHT22;2753;49.196;8.286;2023-11-18T03:40:14;6.40;99.90
5461;DHT22;2753;49.196;8.286;2023-11-18T03:42:43;6.40;99.90
5461;DHT22;2753;49.196;8.286;2023-11-18T03:45:11;6.40;99.90
5461;DHT22;2753;49.196;8.286;2023-11-18T03:47:39;6.30;99.90
5461;DHT22;2753;49.196;8.286;2023-11-18T03:50:05;6.30;99.90
5461;DHT22;2753;49.196;8.286;2023-11-18T03:52:34;6.30;99.90
5461;DHT22;2753;49.196;8.286;2023-11-18T03:55:03;6.30;99.90
5461;DHT22;2753;49.196;8.286;2023-11-18T03:57:28;6.30;99.90
5461;DHT22;2753;49.196;8.286;2023-11-18T03:59:55;6.20;99.90
5461;DHT22;2753;49.196;8.286;2023-11-18T04:02:20;6.00;99.90
5461;DHT22;2753;49.196;8.286;2023-11-18T04:04:46;5.90;99.90
5461;DHT22;2753;49.196;8.286;2023-11-18T04:07:12;6.00;99.90
5461;DHT22;2753;49.196;8.286;2023-11-18T04:09:37;6.00;99.90
5461;DHT22;2753;49.196;8.286;2023-11-18T04:12:07;6.00;99.90
5461;DHT22;2753;49.196;8.286;2023-11-18T04:14:33;5.90;99.90
5461;DHT22;2753;49.196;8.286;2023-11-18T04:16:59;5.90;99.90
5461;DHT22;2753;49.196;8.286;2023-11-18T04:19:25;5.90;99.90
5461;DHT22;2753;49.196;8.286;2023-11-18T04:21:51;6.00;99.90
5461;DHT22;2753;49.196;8.286;2023-11-18T04:24:17;6.00;99.90
5461;DHT22;2753;49.196;8.286;2023-11-18T04:26:42;6.00;99.90
5461;DHT22;2753;49.196;8.286;2023-11-18T04:29:08;6.00;99.90
5461;DHT22;2753;49.196;8.286;2023-11-18T04:31:34;6.00;99.90
5461;DHT22;2753;49.196;8.286;2023-11-18T04:34:00;5.90;99.90
5461;DHT22;2753;49.196;8.286;2023-11-18T04:36:25;5.90;99.90
5461;DHT22;2753;49.196;8.286;2023-11-18T04:38:52;5.90;99.90
5461;DHT22;2753;49.196;8.286;2023-11-18T04:41:17;5.90;99.90
5461;DHT22;2753;49.196;8.286;2023-11-18T04:43:43;5.90;99.90
5461;DHT22;2753;49.196;8.286;2023-11-18T04:46:09;5.80;99.90
5461;DHT22;2753;49.196;8.286;2023-11-18T04:48:34;5.80;99.90
5461;DHT22;2753;49.196;8.286;2023-11-18T04:51:00;5.80;99.90
5461;DHT22;2753;49.196;8.286;2023-11-18T04:53:26;5.80;99.90
5461;DHT22;2753;49.196;8.286;2023-11-18T04:55:52;5.80;99.90
5461;DHT22;2753;49.196;8.286;2023-11-18T04:58:18;5.80;99.90
5461;DHT22;2753;49.196;8.286;2023-11-18T05:00:47;5.70;99.90
5461;DHT22;2753;49.196;8.286;2023-11-18T05:03:13;5.70;99.90
5461;DHT22;2753;49.196;8.286;2023-11-18T05:05:40;5.80;99.90
5461;DHT22;2753;49.196;8.286;2023-11-18T05:08:06;5.80;99.90
5461;DHT22;2753;49.196;8.286;2023-11-18T05:10:33;5.90;99.90
5461;DHT22;2753;49.196;8.286;2023-11-18T05:13:02;5.90;99.90
5461;DHT22;2753;49.196;8.286;2023-11-18T05:15:28;5.90;99.90
5461;DHT22;2753;49.196;8.286;2023-11-18T05:17:55;5.90;99.90
5461;DHT22;2753;49.196;8.286;2023-11-18T05:20:21;5.80;99.90
5461;DHT22;2753;49.196;8.286;2023-11-18T05:22:48;5.80;99.90
5461;DHT22;2753;49.196;8.286;2023-11-18T05:25:14;5.80;99.90
5461;DHT22;2753;49.196;8.286;2023-11-18T05:27:39;5.80;99.90
5461;DHT22;2753;49.196;8.286;2023-11-18T05:30:10;5.90;99.90
5461;DHT22;2753;49.196;8.286;2023-11-18T05:32:36;5.90;99.90
5461;DHT22;2753;49.196;8.286;2023-11-18T05:35:02;5.90;99.90
5461;DHT22;2753;49.196;8.286;2023-11-18T05:37:30;5.90;99.90
5461;DHT22;2753;49.196;8.286;2023-11-18T05:40:01;5.90;99.90
5461;DHT22;2753;49.196;8.286;2023-11-18T05:42:35;5.90;99.90
5461;DHT22;2753;49.196;8.286;2023-11-18T05:45:05;5.90;99.90
5461;DHT22;2753;49.196;8.286;2023-11-18T05:47:35;5.90;99.90
5461;DHT22;2753;49.196;8.286;2023-11-18T05:50:02;5.90;99.90
5461;DHT22;2753;49.196;8.286;2023-11-18T05:52:30;5.90;99.90
5461;DHT22;2753;49.196;8.286;2023-11-18T05:54:56;5.80;99.90
5461;DHT22;2753;49.196;8.286;2023-11-18T05:57:22;5.80;99.90
5461;DHT22;2753;49.196;8.286;2023-11-18T05:59:47;5.80;99.90
5461;DHT22;2753;49.196;8.286;2023-11-18T06:02:13;5.80;99.90
5461;DHT22;2753;49.196;8.286;2023-11-18T06:04:44;5.80;99.90
5461;DHT22;2753;49.196;8.286;2023-11-18T06:07:10;5.80;99.90
5461;DHT22;2753;49.196;8.286;2023-11-18T06:09:36;5.80;99.90
5461;DHT22;2753;49.196;8.286;2023-11-18T06:12:02;5.80;99.90
5461;DHT22;2753;49.196;8.286;2023-11-18T06:14:27;5.80;99.90
5461;DHT22;2753;49.196;8.286;2023-11-18T06:16:53;5.80;99.90
5461;DHT22;2753;49.196;8.286;2023-11-18T06:19:19;5.90;99.90
5461;DHT22;2753;49.196;8.286;2023-11-18T06:21:46;5.90;99.90
5461;DHT22;2753;49.196;8.286;2023-11-18T06:24:12;5.90;99.90
5461;DHT22;2753;49.196;8.286;2023-11-18T06:26:39;5.90;99.90
5461;DHT22;2753;49.196;8.286;2023-11-18T06:29:05;5.80;99.90
5461;DHT22;2753;49.196;8.286;2023-11-18T06:31:32;5.80;99.90
5461;DHT22;2753;49.196;8.286;2023-11-18T06:33:58;5.90;99.90
5461;DHT22;2753;49.196;8.286;2023-11-18T06:36:27;5.90;99.90
5461;DHT22;2753;49.196;8.286;2023-11-18T06:38:53;5.90;99.90
5461;DHT22;2753;49.196;8.286;2023-11-18T06:41:21;5.90;99.90
5461;DHT22;2753;49.196;8.286;2023-11-18T06:43:48;5.90;99.90
5461;DHT22;2753;49.196;8.286;2023-11-18T06:48:54;5.90;99.90
5461;DHT22;2753;49.196;8.286;2023-11-18T06:51:23;5.90;99.90
5461;DHT22;2753;49.196;8.286;2023-11-18T06:53:58;5.90;99.90
5461;DHT22;2753;49.196;8.286;2023-11-18T06:56:25;5.90;99.90
5461;DHT22;2753;49.196;8.286;2023-11-18T06:58:51;5.90;99.90
5461;DHT22;2753;49.196;8.286;2023-11-18T07:01:17;6.00;99.90
5461;DHT22;2753;49.196;8.286;2023-11-18T07:03:48;6.00;99.90
5461;DHT22;2753;49.196;8.286;2023-11-18T07:06:19;6.00;99.90
5461;DHT22;2753;49.196;8.286;2023-11-18T07:08:51;6.00;99.90
5461;DHT22;2753;49.196;8.286;2023-11-18T07:11:17;6.00;99.90
5461;DHT22;2753;49.196;8.286;2023-11-18T07:13:44;6.10;99.90
5461;DHT22;2753;49.196;8.286;2023-11-18T07:16:10;6.10;99.90
5461;DHT22;2753;49.196;8.286;2023-11-18T07:18:37;6.10;99.90
5461;DHT22;2753;49.196;8.286;2023-11-18T07:21:04;6.10;99.90
5461;DHT22;2753;49.196;8.286;2023-11-18T07:23:33;6.10;99.90
5461;DHT22;2753;49.196;8.286;2023-11-18T07:26:00;6.20;99.90
5461;DHT22;2753;49.196;8.286;2023-11-18T07:28:26;6.10;99.90
5461;DHT22;2753;49.196;8.286;2023-11-18T07:30:53;6.20;99.90
5461;DHT22;2753;49.196;8.286;2023-11-18T07:33:19;6.10;99.90
5461;DHT22;2753;49.196;8.286;2023-11-18T07:35:46;6.10;99.90
5461;DHT22;2753;49.196;8.286;2023-11-18T07:38:14;6.20;99.90
5461;DHT22;2753;49.196;8.286;2023-11-18T07:40:39;6.20;99.90
5461;DHT22;2753;49.196;8.286;2023-11-18T07:43:14;6.20;99.90
5461;DHT22;2753;49.196;8.286;2023-11-18T07:45:40;6.20;99.90
5461;DHT22;2753;49.196;8.286;2023-11-18T07:48:11;6.20;99.90
5461;DHT22;2753;49.196;8.286;2023-11-18T07:50:41;6.20;99.90
5461;DHT22;2753;49.196;8.286;2023-11-18T07:53:07;6.20;99.90
5461;DHT22;2753;49.196;8.286;2023-11-18T07:55:36;6.20;99.90
5461;DHT22;2753;49.196;8.286;2023-11-18T07:58:05;6.30;99.90
5461;DHT22;2753;49.196;8.286;2023-11-18T08:00:37;6.30;99.90
5461;DHT22;2753;49.196;8.286;2023-11-18T08:03:05;6.30;99.90
5461;DHT22;2753;49.196;8.286;2023-11-18T08:05:32;6.30;99.90
5461;DHT22;2753;49.196;8.286;2023-11-18T08:07:58;6.40;99.90
5461;DHT22;2753;49.196;8.286;2023-11-18T08:10:24;6.30;99.90
5461;DHT22;2753;49.196;8.286;2023-11-18T08:12:51;6.40;99.90
5461;DHT22;2753;49.196;8.286;2023-11-18T08:15:20;6.40;99.90
5461;DHT22;2753;49.196;8.286;2023-11-18T08:17:45;6.40;99.90
5461;DHT22;2753;49.196;8.286;2023-11-18T08:20:11;6.40;99.90
5461;DHT22;2753;49.196;8.286;2023-11-18T08:22:41;6.40;99.90
5461;DHT22;2753;49.196;8.286;2023-11-18T08:25:12;6.40;99.90
5461;DHT22;2753;49.196;8.286;2023-11-18T08:27:40;6.40;99.90
5461;DHT22;2753;49.196;8.286;2023-11-18T08:30:07;6.40;99.90
5461;DHT22;2753;49.196;8.286;2023-11-18T08:32:37;6.40;99.90
5461;DHT22;2753;49.196;8.286;2023-11-18T08:35:05;6.40;99.90
5461;DHT22;2753;49.196;8.286;2023-11-18T08:37:33;6.40;99.90
5461;DHT22;2753;49.196;8.286;2023-11-18T08:40:02;6.40;99.90
5461;DHT22;2753;49.196;8.286;2023-11-18T08:42:28;6.40;99.90
5461;DHT22;2753;49.196;8.286;2023-11-18T08:44:55;7.00;99.90
5461;DHT22;2753;49.196;8.286;2023-11-18T08:47:21;6.50;99.90
5461;DHT22;2753;49.196;8.286;2023-11-18T08:49:46;6.40;99.90
5461;DHT22;2753;49.196;8.286;2023-11-18T08:52:12;6.40;99.90
5461;DHT22;2753;49.196;8.286;2023-11-18T08:54:38;6.50;99.90
5461;DHT22;2753;49.196;8.286;2023-11-18T08:57:24;6.50;99.90
5461;DHT22;2753;49.196;8.286;2023-11-18T08:59:51;6.60;99.90
5461;DHT22;2753;49.196;8.286;2023-11-18T09:02:20;6.60;99.90
5461;DHT22;2753;49.196;8.286;2023-11-18T09:04:52;6.50;99.90
5461;DHT22;2753;49.196;8.286;2023-11-18T09:07:20;6.50;99.90
5461;DHT22;2753;49.196;8.286;2023-11-18T09:09:47;6.60;99.90
5461;DHT22;2753;49.196;8.286;2023-11-18T09:12:18;6.60;99.90
5461;DHT22;2753;49.196;8.286;2023-11-18T09:14:44;6.60;99.90
5461;DHT22;2753;49.196;8.286;2023-11-18T09:17:13;6.60;99.90
5461;DHT22;2753;49.196;8.286;2023-11-18T09:19:40;6.70;99.90
5461;DHT22;2753;49.196;8.286;2023-11-18T09:22:05;6.70;99.90
5461;DHT22;2753;49.196;8.286;2023-11-18T09:24:31;6.70;99.90
5461;DHT22;2753;49.196;8.286;2023-11-18T09:26:58;6.70;99.90
5461;DHT22;2753;49.196;8.286;2023-11-18T09:29:24;6.70;99.90
5461;DHT22;2753;49.196;8.286;2023-11-18T09:31:50;6.70;99.90
5461;DHT22;2753;49.196;8.286;2023-11-18T09:34:19;6.70;99.90
5461;DHT22;2753;49.196;8.286;2023-11-18T09:36:53;6.70;99.90
5461;DHT22;2753;49.196;8.286;2023-11-18T09:39:20;6.80;99.90
5461;DHT22;2753;49.196;8.286;2023-11-18T09:42:05;6.80;99.90
5461;DHT22;2753;49.196;8.286;2023-11-18T09:44:35;6.80;99.90
5461;DHT22;2753;49.196;8.286;2023-11-18T09:47:08;6.80;99.90
5461;DHT22;2753;49.196;8.286;2023-11-18T09:49:41;6.80;99.90
5461;DHT22;2753;49.196;8.286;2023-11-18T09:52:16;6.80;99.90
5461;DHT22;2753;49.196;8.286;2023-11-18T09:57:33;6.90;99.90
5461;DHT22;2753;49.196;8.286;2023-11-18T10:00:06;6.90;99.90
5461;DHT22;2753;49.196;8.286;2023-11-18T10:02:50;6.90;99.90
5461;DHT22;2753;49.196;8.286;2023-11-18T10:05:17;7.00;99.90
5461;DHT22;2753;49.196;8.286;2023-11-18T10:07:47;6.90;99.90
5461;DHT22;2753;49.196;8.286;2023-11-18T10:10:13;7.00;99.90
5461;DHT22;2753;49.196;8.286;2023-11-18T10:12:47;7.00;99.90
5461;DHT22;2753;49.196;8.286;2023-11-18T10:15:23;7.00;99.90
5461;DHT22;2753;49.196;8.286;2023-11-18T10:17:51;7.00;99.90
5461;DHT22;2753;49.196;8.286;2023-11-18T10:20:42;7.00;99.90
5461;DHT22;2753;49.196;8.286;2023-11-18T10:23:10;7.10;99.90
5461;DHT22;2753;49.196;8.286;2023-11-18T10:25:48;7.00;99.90
5461;DHT22;2753;49.196;8.286;2023-11-18T10:28:36;7.00;99.90
5461;DHT22;2753;49.196;8.286;2023-11-18T10:31:05;7.00;99.90
5461;DHT22;2753;49.196;8.286;2023-11-18T10:36:00;7.10;99.90
5461;DHT22;2753;49.196;8.286;2023-11-18T10:38:33;7.10;99.90
5461;DHT22;2753;49.196;8.286;2023-11-18T10:41:04;7.10;99.90
5461;DHT22;2753;49.196;8.286;2023-11-18T10:43:31;7.10;99.90
5461;DHT22;2753;49.196;8.286;2023-11-18T10:46:08;7.10;99.90
5461;DHT22;2753;49.196;8.286;2023-11-18T10:48:55;7.10;99.90
5461;DHT22;2753;49.196;8.286;2023-11-18T10:51:21;7.20;99.90
5461;DHT22;2753;49.196;8.286;2023-11-18T10:53:53;7.20;99.90
5461;DHT22;2753;49.196;8.286;2023-11-18T10:56:22;7.20;99.90
5461;DHT22;2753;49.196;8.286;2023-11-18T10:59:12;7.20;99.90
5461;DHT22;2753;49.196;8.286;2023-11-18T11:01:42;7.20;99.90
5461;DHT22;2753;49.196;8.286;2023-11-18T11:04:10;7.20;99.90
5461;DHT22;2753;49.196;8.286;2023-11-18T11:06:46;7.20;99.90
5461;DHT22;2753;49.196;8.286;2023-11-18T11:09:24;7.20;99.90
5461;DHT22;2753;49.196;8.286;2023-11-18T11:11:54;7.20;99.90
5461;DHT22;2753;49.196;8.286;2023-11-18T11:14:23;7.30;99.90
5461;DHT22;2753;49.196;8.286;2023-11-18T11:17:05;7.20;99.90
5461;DHT22;2753;49.196;8.286;2023-11-18T11:22:26;7.10;99.90
5461;DHT22;2753;49.196;8.286;2023-11-18T11:27:54;7.30;99.90
5461;DHT22;2753;49.196;8.286;2023-11-18T11:33:29;7.30;99.90
5461;DHT22;2753;49.196;8.286;2023-11-18T11:36:02;7.30;99.90
5461;DHT22;2753;49.196;8.286;2023-11-18T11:38:36;7.30;99.90
5461;DHT22;2753;49.196;8.286;2023-11-18T11:41:08;7.40;99.90
5461;DHT22;2753;49.196;8.286;2023-11-18T11:43:35;7.40;99.90
5461;DHT22;2753;49.196;8.286;2023-11-18T11:46:02;7.30;99.90
5461;DHT22;2753;49.196;8.286;2023-11-18T11:48:37;7.40;99.90
5461;DHT22;2753;49.196;8.286;2023-11-18T11:51:46;7.40;99.90
5461;DHT22;2753;49.196;8.286;2023-11-18T11:54:38;7.40;99.90
5461;DHT22;2753;49.196;8.286;2023-11-18T11:57:05;7.50;99.90
5461;DHT22;2753;49.196;8.286;2023-11-18T11:59:36;7.50;99.90
5461;DHT22;2753;49.196;8.286;2023-11-18T12:02:22;7.40;99.90
5461;DHT22;2753;49.196;8.286;2023-11-18T12:04:55;7.40;99.90
5461;DHT22;2753;49.196;8.286;2023-11-18T12:07:25;7.50;99.90
5461;DHT22;2753;49.196;8.286;2023-11-18T12:10:01;7.50;99.90
5461;DHT22;2753;49.196;8.286;2023-11-18T12:12:32;7.50;99.90
5461;DHT22;2753;49.196;8.286;2023-11-18T12:14:59;7.50;99.90
5461;DHT22;2753;49.196;8.286;2023-11-18T12:20:39;7.50;99.90
5461;DHT22;2753;49.196;8.286;2023-11-18T12:23:10;7.50;99.90
5461;DHT22;2753;49.196;8.286;2023-11-18T12:25:50;7.50;99.90
5461;DHT22;2753;49.196;8.286;2023-11-18T12:28:31;7.50;99.90
5461;DHT22;2753;49.196;8.286;2023-11-18T12:31:01;7.50;99.90
5461;DHT22;2753;49.196;8.286;2023-11-18T12:44:29;7.50;99.90
5461;DHT22;2753;49.196;8.286;2023-11-18T12:47:04;7.60;99.90
5461;DHT22;2753;49.196;8.286;2023-11-18T12:49:48;7.60;99.90
5461;DHT22;2753;49.196;8.286;2023-11-18T12:52:21;7.60;99.90
5461;DHT22;2753;49.196;8.286;2023-11-18T12:54:47;7.50;99.90
5461;DHT22;2753;49.196;8.286;2023-11-18T12:57:26;7.60;99.90
5461;DHT22;2753;49.196;8.286;2023-11-18T12:59:57;7.50;99.90
5461;DHT22;2753;49.196;8.286;2023-11-18T13:02:23;7.60;99.90
5461;DHT22;2753;49.196;8.286;2023-11-18T13:04:49;7.60;99.90
5461;DHT22;2753;49.196;8.286;2023-11-18T13:07:16;7.60;99.90
5461;DHT22;2753;49.196;8.286;2023-11-18T13:09:43;7.60;99.90
5461;DHT22;2753;49.196;8.286;2023-11-18T13:12:14;7.60;99.90
5461;DHT22;2753;49.196;8.286;2023-11-18T13:14:43;7.70;99.90
5461;DHT22;2753;49.196;8.286;2023-11-18T13:17:13;7.70;99.90
5461;DHT22;2753;49.196;8.286;2023-11-18T13:19:42;7.70;99.90
5461;DHT22;2753;49.196;8.286;2023-11-18T13:22:11;7.60;99.90
5461;DHT22;2753;49.196;8.286;2023-11-18T13:24:41;7.70;99.90
5461;DHT22;2753;49.196;8.286;2023-11-18T13:27:10;7.60;99.90
5461;DHT22;2753;49.196;8.286;2023-11-18T13:29:38;7.70;99.90
5461;DHT22;2753;49.196;8.286;2023-11-18T13:32:05;7.70;99.90
5461;DHT22;2753;49.196;8.286;2023-11-18T13:34:34;7.70;99.90
5461;DHT22;2753;49.196;8.286;2023-11-18T13:37:03;7.70;99.90
5461;DHT22;2753;49.196;8.286;2023-11-18T13:39:34;7.70;99.90
5461;DHT22;2753;49.196;8.286;2023-11-18T13:42:22;7.70;99.90
5461;DHT22;2753;49.196;8.286;2023-11-18T13:44:49;7.80;99.90
5461;DHT22;2753;49.196;8.286;2023-11-18T13:47:19;7.80;99.90
5461;DHT22;2753;49.196;8.286;2023-11-18T13:49:45;7.80;99.90
5461;DHT22;2753;49.196;8.286;2023-11-18T13:52:18;7.80;99.90
5461;DHT22;2753;49.196;8.286;2023-11-18T13:54:44;7.90;99.90
5461;DHT22;2753;49.196;8.286;2023-11-18T13:57:12;7.80;99.90
5461;DHT22;2753;49.196;8.286;2023-11-18T13:59:38;7.90;99.90
5461;DHT22;2753;49.196;8.286;2023-11-18T14:02:09;7.90;99.90
5461;DHT22;2753;49.196;8.286;2023-11-18T14:04:39;7.80;99.90
5461;DHT22;2753;49.196;8.286;2023-11-18T14:07:05;7.90;99.90
5461;DHT22;2753;49.196;8.286;2023-11-18T14:09:37;7.90;99.90
5461;DHT22;2753;49.196;8.286;2023-11-18T14:12:09;7.80;99.90
5461;DHT22;2753;49.196;8.286;2023-11-18T14:14:35;7.90;99.90
5461;DHT22;2753;49.196;8.286;2023-11-18T14:17:01;7.90;99.90
5461;DHT22;2753;49.196;8.286;2023-11-18T14:19:27;7.90;99.90
5461;DHT22;2753;49.196;8.286;2023-11-18T14:21:53;7.90;99.90
5461;DHT22;2753;49.196;8.286;2023-11-18T14:24:19;7.90;99.90
5461;DHT22;2753;49.196;8.286;2023-11-18T14:57:47;7.90;99.90
5461;DHT22;2753;49.196;8.286;2023-11-18T15:13:05;7.90;99.90
5461;DHT22;2753;49.196;8.286;2023-11-18T15:18:08;7.90;99.90
5461;DHT22;2753;49.196;8.286;2023-11-18T15:20:35;7.90;99.90
5461;DHT22;2753;49.196;8.286;2023-11-18T15:23:04;7.90;99.90
5461;DHT22;2753;49.196;8.286;2023-11-18T15:25:30;7.90;99.90
5461;DHT22;2753;49.196;8.286;2023-11-18T15:27:55;7.80;99.90
5461;DHT22;2753;49.196;8.286;2023-11-18T15:30:22;7.80;99.90
5461;DHT22;2753;49.196;8.286;2023-11-18T15:32:50;7.90;99.90
5461;DHT22;2753;49.196;8.286;2023-11-18T15:35:17;7.90;99.90
5461;DHT22;2753;49.196;8.286;2023-11-18T15:37:44;7.90;99.90
5461;DHT22;2753;49.196;8.286;2023-11-18T15:40:15;7.90;99.90
5461;DHT22;2753;49.196;8.286;2023-11-18T15:42:53;7.90;99.90
5461;DHT22;2753;49.196;8.286;2023-11-18T15:45:21;7.90;99.90
5461;DHT22;2753;49.196;8.286;2023-11-18T15:47:49;7.80;99.90
5461;DHT22;2753;49.196;8.286;2023-11-18T15:50:16;7.80;99.90
5461;DHT22;2753;49.196;8.286;2023-11-18T15:52:46;7.80;99.90
5461;DHT22;2753;49.196;8.286;2023-11-18T15:55:14;7.80;99.90
5461;DHT22;2753;49.196;8.286;2023-11-18T15:57:44;7.80;99.90
5461;DHT22;2753;49.196;8.286;2023-11-18T16:00:14;7.80;99.90
5461;DHT22;2753;49.196;8.286;2023-11-18T16:02:43;7.80;99.90
5461;DHT22;2753;49.196;8.286;2023-11-18T16:05:15;7.80;99.90
5461;DHT22;2753;49.196;8.286;2023-11-18T16:07:46;7.80;99.90
5461;DHT22;2753;49.196;8.286;2023-11-18T16:10:13;7.80;99.90
5461;DHT22;2753;49.196;8.286;2023-11-18T16:12:54;7.80;99.90
5461;DHT22;2753;49.196;8.286;2023-11-18T16:15:21;7.80;99.90
5461;DHT22;2753;49.196;8.286;2023-11-18T16:17:48;7.80;99.90
5461;DHT22;2753;49.196;8.286;2023-11-18T16:20:19;7.90;99.90
5461;DHT22;2753;49.196;8.286;2023-11-18T16:22:47;7.90;99.90
5461;DHT22;2753;49.196;8.286;2023-11-18T16:27:44;7.80;99.90
5461;DHT22;2753;49.196;8.286;2023-11-18T16:30:14;7.80;99.90
5461;DHT22;2753;49.196;8.286;2023-11-18T16:32:40;7.80;99.90
5461;DHT22;2753;49.196;8.286;2023-11-18T16:35:06;7.80;99.90
5461;DHT22;2753;49.196;8.286;2023-11-18T16:37:41;7.80;99.90
5461;DHT22;2753;49.196;8.286;2023-11-18T16:40:12;7.80;99.90
5461;DHT22;2753;49.196;8.286;2023-11-18T16:42:41;7.90;99.90
5461;DHT22;2753;49.196;8.286;2023-11-18T16:45:07;7.90;99.90
5461;DHT22;2753;49.196;8.286;2023-11-18T16:47:38;7.90;99.90
5461;DHT22;2753;49.196;8.286;2023-11-18T16:50:05;7.90;99.90
5461;DHT22;2753;49.196;8.286;2023-11-18T16:52:32;7.90;99.90
5461;DHT22;2753;49.196;8.286;2023-11-18T16:54:58;7.90;99.90
5461;DHT22;2753;49.196;8.286;2023-11-18T16:57:23;7.90;99.90
5461;DHT22;2753;49.196;8.286;2023-11-18T16:59:51;8.70;99.90
5461;DHT22;2753;49.196;8.286;2023-11-18T17:02:17;7.90;99.90
5461;DHT22;2753;49.196;8.286;2023-11-18T17:04:48;7.90;99.90
5461;DHT22;2753;49.196;8.286;2023-11-18T17:07:14;7.90;99.90
5461;DHT22;2753;49.196;8.286;2023-11-18T17:09:40;7.90;99.90
5461;DHT22;2753;49.196;8.286;2023-11-18T17:12:06;7.90;99.90
5461;DHT22;2753;49.196;8.286;2023-11-18T17:14:32;7.90;99.90
5461;DHT22;2753;49.196;8.286;2023-11-18T17:16:58;7.90;99.90
5461;DHT22;2753;49.196;8.286;2023-11-18T17:19:24;7.80;99.90
5461;DHT22;2753;49.196;8.286;2023-11-18T17:21:50;7.80;99.90
5461;DHT22;2753;49.196;8.286;2023-11-18T17:24:20;7.80;99.90
5461;DHT22;2753;49.196;8.286;2023-11-18T17:26:45;7.80;99.90
5461;DHT22;2753;49.196;8.286;2023-11-18T17:29:11;7.80;99.90
5461;DHT22;2753;49.196;8.286;2023-11-18T17:31:39;7.90;99.90
5461;DHT22;2753;49.196;8.286;2023-11-18T17:34:07;7.90;99.90
5461;DHT22;2753;49.196;8.286;2023-11-18T17:36:35;7.90;99.90
5461;DHT22;2753;49.196;8.286;2023-11-18T17:39:00;8.40;99.90
5461;DHT22;2753;49.196;8.286;2023-11-18T17:41:27;7.90;99.90
5461;DHT22;2753;49.196;8.286;2023-11-18T17:43:53;7.90;99.90
5461;DHT22;2753;49.196;8.286;2023-11-18T17:46:19;7.90;99.90
5461;DHT22;2753;49.196;8.286;2023-11-18T17:48:45;7.80;99.90